Time;durP1;ratioP1;P1;durP2;ratioP2;P2;SDS_P1;SDS_P2;PMS_P1;PMS_P2;Temp;Humidity;BMP_temperature;BMP_pressure;BME280_temperature;BME280_humidity;BME280_pressure;Samples;Min_cycle;Max_cycle;Signal;HPM_P1;HPM_P2
2022/10/25 00:01:47;;;;;;;1.80;1.50;;;13.20;99.60;;;;;;5098916;28;20621;-43
2022/10/25 00:04:14;;;;;;;1.40;1.20;;;13.20;99.90;;;;;;5098076;28;20174;-44
2022/10/25 00:06:40;;;;;;;2.30;1.47;;;13.20;99.50;;;;;;5097790;28;20888;-45
2022/10/25 00:09:06;;;;;;;2.93;1.73;;;13.10;99.50;;;;;;5095806;28;20554;-45
2022/10/25 00:11:33;;;;;;;1.80;1.50;;;13.10;99.40;;;;;;5096669;28;20555;-48
2022/10/25 00:14:04;;;;;;;2.20;1.30;;;13.10;99.40;;;;;;5097547;28;20414;-45
2022/10/25 00:16:32;;;;;;;2.47;1.80;;;13.10;99.40;;;;;;5096729;28;20430;-43
2022/10/25 00:18:58;;;;;;;1.77;1.50;;;13.10;99.50;;;;;;5097916;28;20483;-43
2022/10/25 00:21:24;;;;;;;2.53;1.20;;;13.10;99.40;;;;;;5097091;28;20763;-44
2022/10/25 00:23:51;;;;;;;2.60;1.77;;;13.10;99.40;;;;;;5096711;28;20253;-45
2022/10/25 00:26:17;;;;;;;2.33;1.40;;;13.00;99.40;;;;;;5097534;28;20483;-46
2022/10/25 00:28:43;;;;;;;3.70;1.30;;;13.00;99.40;;;;;;5098412;28;20763;-45
2022/10/25 00:31:11;;;;;;;1.60;1.40;;;13.00;99.40;;;;;;5096060;28;20533;-44
2022/10/25 00:33:37;;;;;;;2.40;1.10;;;13.00;99.40;;;;;;5096616;28;20169;-43
2022/10/25 00:36:08;;;;;;;4.23;1.70;;;13.00;99.40;;;;;;5097227;28;20431;-44
2022/10/25 00:38:34;;;;;;;2.60;1.60;;;13.00;99.40;;;;;;5097591;28;20427;-43
2022/10/25 00:41:02;;;;;;;2.43;1.50;;;13.00;99.40;;;;;;5097752;28;20542;-46
2022/10/25 00:43:36;;;;;;;2.20;1.47;;;12.90;99.30;;;;;;5096971;28;20415;-43
2022/10/25 00:46:06;;;;;;;2.00;1.20;;;12.90;99.40;;;;;;5095954;28;20426;-44
2022/10/25 00:48:32;;;;;;;1.77;1.30;;;12.90;99.40;;;;;;5095251;28;20470;-45
2022/10/25 00:50:58;;;;;;;1.57;1.17;;;12.90;99.40;;;;;;5095203;28;20557;-44
2022/10/25 00:53:35;;;;;;;2.63;1.60;;;12.90;99.40;;;;;;5097306;28;20566;-45
2022/10/25 00:56:20;;;;;;;1.50;1.13;;;12.90;99.40;;;;;;5094432;28;20891;-46
2022/10/25 00:58:50;;;;;;;3.97;1.50;;;12.90;99.70;;;;;;5096619;28;20513;-43
2022/10/25 01:01:16;;;;;;;2.53;1.50;;;12.80;99.30;;;;;;5093213;28;20467;-44
2022/10/25 01:03:43;;;;;;;2.93;1.47;;;12.80;99.30;;;;;;5095990;28;20436;-42
2022/10/25 01:06:29;;;;;;;3.83;1.70;;;12.80;99.30;;;;;;5096726;28;20842;-43
2022/10/25 01:08:55;;;;;;;2.50;1.40;;;12.80;99.30;;;;;;5095986;28;20774;-43
2022/10/25 01:11:20;;;;;;;2.27;1.40;;;12.80;99.40;;;;;;5095272;28;20743;-43
2022/10/25 01:13:47;;;;;;;1.57;1.23;;;12.80;99.40;;;;;;5097263;28;20495;-43
2022/10/25 01:16:34;;;;;;;1.70;1.30;;;12.80;99.40;;;;;;5095420;28;20257;-42
2022/10/25 01:19:03;;;;;;;2.80;1.47;;;12.70;99.30;;;;;;5096250;28;20685;-46
2022/10/25 01:21:47;;;;;;;2.33;1.50;;;12.70;99.20;;;;;;5097849;28;20415;-42
2022/10/25 01:24:51;;;;;;;5.43;2.00;;;12.70;99.30;;;;;;5095316;28;20758;-42
2022/10/25 01:27:50;;;;;;;2.50;1.57;;;12.70;99.30;;;;;;5097436;28;20410;-43
2022/10/25 01:30:19;;;;;;;2.70;1.60;;;12.70;99.30;;;;;;5096903;28;20708;-43
2022/10/25 01:33:14;;;;;;;2.20;1.50;;;12.70;99.30;;;;;;5096912;28;20406;-45
2022/10/25 01:36:05;;;;;;;2.33;1.30;;;12.70;99.40;;;;;;5092461;28;20478;-41
2022/10/25 01:38:49;;;;;;;2.17;1.43;;;12.70;99.40;;;;;;5095855;28;20414;-43
2022/10/25 01:41:15;;;;;;;2.20;1.40;;;12.70;99.50;;;;;;5095948;28;20767;-44
2022/10/25 01:44:01;;;;;;;1.90;1.63;;;12.60;99.40;;;;;;5096949;28;20407;-44
2022/10/25 01:46:31;;;;;;;2.83;1.70;;;12.60;99.40;;;;;;5097546;28;20476;-46
2022/10/25 01:49:02;;;;;;;2.63;1.70;;;12.60;99.50;;;;;;5096591;28;20562;-43
2022/10/25 01:51:28;;;;;;;2.03;1.50;;;12.60;99.50;;;;;;5096414;28;20440;-44
2022/10/25 01:53:53;;;;;;;2.00;1.60;;;12.60;99.50;;;;;;5096593;28;20399;-44
2022/10/25 01:56:33;;;;;;;1.93;1.57;;;12.60;99.50;;;;;;5096155;28;20267;-47
2022/10/25 01:59:08;;;;;;;1.90;1.50;;;12.60;99.50;;;;;;5096911;28;20415;-42
2022/10/25 02:01:46;;;;;;;3.97;1.80;;;12.60;99.60;;;;;;5097245;28;20484;-44
2022/10/25 02:04:22;;;;;;;2.27;1.60;;;12.60;99.60;;;;;;5095653;28;20421;-45
2022/10/25 02:07:40;;;;;;;1.53;1.20;;;12.60;99.60;;;;;;5096341;28;20398;-42
2022/10/25 02:10:40;;;;;;;3.23;2.00;;;12.60;99.60;;;;;;5068849;28;20455;-43
2022/10/25 02:13:15;;;;;;;2.30;1.80;;;12.60;99.60;;;;;;5095609;28;20725;-42
2022/10/25 02:15:51;;;;;;;2.30;1.60;;;12.60;99.60;;;;;;5097922;28;20708;-43
2022/10/25 02:18:20;;;;;;;5.03;1.57;;;12.60;99.70;;;;;;5098423;28;20825;-42
2022/10/25 02:20:47;;;;;;;2.57;1.90;;;12.60;99.80;;;;;;5096823;28;20870;-44
2022/10/25 02:23:13;;;;;;;3.30;1.67;;;12.60;99.80;;;;;;5099009;28;20471;-43
2022/10/25 02:25:39;;;;;;;2.00;1.80;;;12.60;99.90;;;;;;5097387;28;20437;-45
2022/10/25 02:28:07;;;;;;;2.93;1.90;;;12.60;99.90;;;;;;5099334;28;20515;-45
2022/10/25 02:30:34;;;;;;;3.13;1.77;;;12.60;99.90;;;;;;5080848;28;20434;-49
2022/10/25 02:33:00;;;;;;;4.90;2.03;;;12.60;99.80;;;;;;5082251;28;20415;-43
2022/10/25 02:35:26;;;;;;;4.40;2.00;;;12.60;99.80;;;;;;5097072;28;20884;-44
2022/10/25 02:37:51;;;;;;;6.27;1.80;;;12.60;99.90;;;;;;5100136;28;20411;-46
2022/10/25 02:40:17;;;;;;;3.60;1.63;;;12.60;99.80;;;;;;5097985;28;20192;-43
2022/10/25 02:42:43;;;;;;;4.27;2.07;;;12.60;99.80;;;;;;5100663;28;20180;-42
2022/10/25 02:45:09;;;;;;;4.17;2.20;;;12.60;99.90;;;;;;5098150;28;20868;-44
2022/10/25 02:47:35;;;;;;;2.23;1.73;;;12.50;99.90;;;;;;5100045;28;20177;-46
2022/10/25 02:50:00;;;;;;;2.00;1.80;;;12.60;99.90;;;;;;5098544;28;20437;-45
2022/10/25 02:52:26;;;;;;;3.83;1.87;;;12.60;99.90;;;;;;5097882;28;20579;-43
2022/10/25 02:54:51;;;;;;;2.70;1.80;;;12.60;99.90;;;;;;5098122;28;20173;-46
2022/10/25 02:57:17;;;;;;;2.50;1.57;;;12.60;99.90;;;;;;5098628;28;20574;-42
2022/10/25 02:59:43;;;;;;;3.00;1.87;;;12.60;99.90;;;;;;5098356;28;20283;-44
2022/10/25 03:02:08;;;;;;;4.13;2.27;;;12.60;99.90;;;;;;5098321;28;20535;-46
2022/10/25 03:04:34;;;;;;;3.30;1.90;;;12.50;99.90;;;;;;5098483;28;20192;-47
2022/10/25 03:06:59;;;;;;;3.00;2.40;;;12.50;99.90;;;;;;5099809;28;20210;-44
2022/10/25 03:09:25;;;;;;;3.13;2.00;;;12.50;99.90;;;;;;5096897;28;20482;-43
2022/10/25 03:11:51;;;;;;;4.73;2.10;;;12.50;99.90;;;;;;5097882;28;20253;-43
2022/10/25 03:14:16;;;;;;;3.43;1.70;;;12.50;99.90;;;;;;5096644;28;20272;-43
2022/10/25 03:16:42;;;;;;;2.63;1.87;;;12.50;99.90;;;;;;5099228;28;20172;-45
2022/10/25 03:19:07;;;;;;;3.37;2.20;;;12.50;99.90;;;;;;5096366;28;20230;-42
2022/10/25 03:21:33;;;;;;;2.87;2.20;;;12.50;99.90;;;;;;5097805;28;20707;-44
2022/10/25 03:23:59;;;;;;;4.90;2.40;;;12.50;99.90;;;;;;5097031;28;20195;-43
2022/10/25 03:26:25;;;;;;;2.80;2.10;;;12.50;99.90;;;;;;5096344;28;20434;-45
2022/10/25 03:28:50;;;;;;;3.87;2.23;;;12.50;99.90;;;;;;5097201;28;20288;-43
2022/10/25 03:31:19;;;;;;;4.17;2.20;;;12.50;99.90;;;;;;5094893;28;20208;-42
2022/10/25 03:33:45;;;;;;;3.23;2.00;;;12.50;99.90;;;;;;5095896;28;20209;-43
2022/10/25 03:36:11;;;;;;;3.70;2.00;;;12.50;99.90;;;;;;5093690;28;20426;-45
2022/10/25 03:38:37;;;;;;;5.07;2.60;;;12.40;99.90;;;;;;5095733;28;20845;-45
2022/10/25 03:41:04;;;;;;;2.83;2.50;;;12.40;99.90;;;;;;5092983;28;20705;-43
2022/10/25 03:43:29;;;;;;;2.97;2.77;;;12.40;99.90;;;;;;5096213;28;20424;-44
2022/10/25 03:45:55;;;;;;;3.13;2.50;;;12.50;99.90;;;;;;5096467;28;20422;-43
2022/10/25 03:48:21;;;;;;;3.50;2.93;;;12.40;99.90;;;;;;5095137;28;20213;-44
2022/10/25 03:50:46;;;;;;;4.03;2.53;;;12.40;99.90;;;;;;5092768;28;20477;-43
2022/10/25 03:53:12;;;;;;;4.50;2.80;;;12.40;99.90;;;;;;5094399;28;20183;-42
2022/10/25 03:55:37;;;;;;;4.23;2.60;;;12.40;99.90;;;;;;5094978;28;20193;-46
2022/10/25 03:58:03;;;;;;;2.73;2.40;;;12.40;99.90;;;;;;5095087;28;20606;-46
2022/10/25 04:00:29;;;;;;;5.67;3.03;;;12.30;99.90;;;;;;5092186;28;20652;-44
2022/10/25 04:02:56;;;;;;;3.70;2.30;;;12.40;99.90;;;;;;5092399;28;20204;-44
2022/10/25 04:05:22;;;;;;;4.30;2.53;;;12.30;99.90;;;;;;5090404;28;20192;-43
2022/10/25 04:07:47;;;;;;;3.30;2.10;;;12.30;99.90;;;;;;5092564;28;20845;-43
2022/10/25 04:10:13;;;;;;;3.53;2.17;;;12.30;99.90;;;;;;5091908;28;20184;-46
2022/10/25 04:12:39;;;;;;;2.77;2.33;;;12.40;99.90;;;;;;5092962;28;20559;-45
2022/10/25 04:15:05;;;;;;;5.07;2.10;;;12.40;99.90;;;;;;5093374;28;20442;-43
2022/10/25 04:17:30;;;;;;;3.80;2.10;;;12.30;99.90;;;;;;5094130;28;20181;-43
2022/10/25 04:19:56;;;;;;;3.10;2.10;;;12.40;99.90;;;;;;5092126;28;20446;-46
2022/10/25 04:22:22;;;;;;;3.37;2.50;;;12.40;99.90;;;;;;5091888;28;20177;-42
2022/10/25 04:24:47;;;;;;;3.30;2.30;;;12.40;99.90;;;;;;5090515;28;20193;-46
2022/10/25 04:27:13;;;;;;;2.67;2.00;;;12.40;99.90;;;;;;5089715;28;20187;-44
2022/10/25 04:29:38;;;;;;;3.40;1.90;;;12.40;99.90;;;;;;5086343;28;20482;-45
2022/10/25 04:32:05;;;;;;;4.93;2.10;;;12.40;99.90;;;;;;5088984;28;20229;-43
2022/10/25 04:34:30;;;;;;;3.07;2.20;;;12.30;99.90;;;;;;5087764;28;20236;-42
2022/10/25 04:36:56;;;;;;;3.00;2.10;;;12.30;99.90;;;;;;5089387;28;20705;-42
2022/10/25 04:39:22;;;;;;;3.53;2.00;;;12.30;99.90;;;;;;5086899;28;20364;-43
2022/10/25 04:41:47;;;;;;;3.93;2.10;;;12.30;99.90;;;;;;5089675;28;20184;-43
2022/10/25 04:44:13;;;;;;;3.73;2.17;;;12.30;99.90;;;;;;5089220;28;20185;-46
2022/10/25 04:46:39;;;;;;;3.33;1.67;;;12.30;99.90;;;;;;5091094;28;20199;-45
2022/10/25 04:49:04;;;;;;;3.37;1.83;;;12.30;99.90;;;;;;5088448;28;20217;-43
2022/10/25 04:51:30;;;;;;;3.27;1.90;;;12.30;99.90;;;;;;5089904;28;20184;-43
2022/10/25 04:53:55;;;;;;;4.07;2.07;;;12.30;99.90;;;;;;5088494;28;20230;-44
2022/10/25 04:56:21;;;;;;;2.93;2.20;;;12.30;99.90;;;;;;5089526;28;20562;-43
2022/10/25 04:58:47;;;;;;;4.83;2.40;;;12.30;99.90;;;;;;5089842;28;20223;-43
2022/10/25 05:01:15;;;;;;;2.10;1.87;;;12.30;99.90;;;;;;5088376;28;20520;-43
2022/10/25 05:03:41;;;;;;;2.60;2.10;;;12.30;99.90;;;;;;5088564;28;20571;-43
2022/10/25 05:06:09;;;;;;;2.07;1.90;;;12.30;99.90;;;;;;5090404;28;20439;-42
2022/10/25 05:08:39;;;;;;;3.07;2.20;;;12.30;99.90;;;;;;5088569;28;20303;-41
2022/10/25 05:11:07;;;;;;;6.53;2.83;;;12.20;99.90;;;;;;5071917;28;20504;-42
2022/10/25 05:13:35;;;;;;;5.00;2.40;;;12.20;99.90;;;;;;5090179;28;20433;-42
2022/10/25 05:16:01;;;;;;;4.30;2.60;;;12.10;99.90;;;;;;5087721;28;20439;-41
2022/10/25 05:18:27;;;;;;;4.57;2.43;;;12.00;99.90;;;;;;5084852;28;20438;-41
2022/10/25 05:20:58;;;;;;;3.40;2.00;;;11.90;99.90;;;;;;5082793;28;20434;-43
2022/10/25 05:23:25;;;;;;;3.40;2.50;;;11.90;99.90;;;;;;5083339;28;20547;-43
2022/10/25 05:26:08;;;;;;;2.73;2.10;;;11.90;99.90;;;;;;5085434;28;20435;-40
2022/10/25 05:28:35;;;;;;;4.97;3.20;;;11.80;99.90;;;;;;5086144;28;20526;-40
2022/10/25 05:31:08;;;;;;;3.20;2.20;;;11.80;99.90;;;;;;5083727;28;20699;-40
2022/10/25 05:33:33;;;;;;;3.20;2.57;;;11.70;99.90;;;;;;5083830;28;20691;-40
2022/10/25 05:36:00;;;;;;;3.40;2.17;;;11.70;99.90;;;;;;5067770;28;20443;-42
2022/10/25 05:38:26;;;;;;;3.77;2.90;;;11.70;99.90;;;;;;5089713;28;20179;-40
2022/10/25 05:40:56;;;;;;;2.20;1.97;;;11.70;99.90;;;;;;5087073;28;20458;-42
2022/10/25 05:43:22;;;;;;;2.70;2.30;;;11.70;99.90;;;;;;5084086;28;20913;-43
2022/10/25 05:45:48;;;;;;;5.03;2.53;;;11.70;99.90;;;;;;5082496;28;20513;-43
2022/10/25 05:48:14;;;;;;;3.07;2.07;;;11.60;99.90;;;;;;5089955;28;20505;-40
2022/10/25 05:50:39;;;;;;;3.73;1.90;;;11.70;99.90;;;;;;5090941;28;20451;-40
2022/10/25 05:53:05;;;;;;;3.37;2.57;;;11.60;99.90;;;;;;5091308;28;20596;-41
2022/10/25 05:55:32;;;;;;;3.87;2.23;;;11.60;99.90;;;;;;5092006;28;20427;-43
2022/10/25 05:57:58;;;;;;;4.47;2.67;;;11.60;99.90;;;;;;5094206;28;20272;-43
2022/10/25 06:00:24;;;;;;;4.60;2.57;;;11.60;99.90;;;;;;5094714;28;20544;-43
2022/10/25 06:02:49;;;;;;;3.03;2.70;;;11.60;99.90;;;;;;5095536;28;20483;-40
2022/10/25 06:05:16;;;;;;;2.60;1.93;;;11.60;99.90;;;;;;5092431;28;20192;-43
2022/10/25 06:07:42;;;;;;;3.30;2.83;;;11.60;99.90;;;;;;5093322;28;20173;-41
2022/10/25 06:10:08;;;;;;;2.07;1.70;;;11.70;99.90;;;;;;5090242;28;20440;-41
2022/10/25 06:12:33;;;;;;;3.20;1.80;;;11.70;99.90;;;;;;5094672;28;20204;-43
2022/10/25 06:14:59;;;;;;;2.97;2.40;;;11.70;99.90;;;;;;5093256;28;20821;-43
2022/10/25 06:17:24;;;;;;;4.70;3.00;;;11.70;99.90;;;;;;5096704;28;20269;-41
2022/10/25 06:19:50;;;;;;;6.30;2.30;;;11.70;99.90;;;;;;5094101;28;20313;-40
2022/10/25 06:22:15;;;;;;;3.50;2.47;;;11.80;99.90;;;;;;5096083;28;20322;-43
2022/10/25 06:24:41;;;;;;;3.30;2.13;;;11.90;99.90;;;;;;5094768;28;20542;-42
2022/10/25 06:27:07;;;;;;;5.20;1.90;;;12.10;99.90;;;;;;5096520;28;20246;-41
2022/10/25 06:29:32;;;;;;;2.67;2.07;;;12.40;99.90;;;;;;5094401;28;20212;-44
2022/10/25 06:31:58;;;;;;;4.17;2.27;;;12.60;99.90;;;;;;5096778;28;20254;-42
2022/10/25 06:34:23;;;;;;;3.10;2.13;;;12.80;99.90;;;;;;5092422;28;20241;-41
2022/10/25 06:36:49;;;;;;;4.50;2.20;;;13.00;99.70;;;;;;5095391;28;20278;-42
2022/10/25 06:39:15;;;;;;;2.80;2.50;;;13.10;99.40;;;;;;5094775;28;20181;-41
2022/10/25 06:41:40;;;;;;;2.63;1.80;;;13.30;99.20;;;;;;5095561;28;20188;-40
2022/10/25 06:44:06;;;;;;;2.33;1.63;;;13.50;99.10;;;;;;5094230;28;20180;-44
2022/10/25 06:46:33;;;;;;;3.60;3.23;;;13.70;98.90;;;;;;5093827;28;20199;-43
2022/10/25 06:49:00;;;;;;;4.03;2.03;;;13.90;98.60;;;;;;5094408;28;20260;-41
2022/10/25 06:51:27;;;;;;;1.80;1.57;;;14.10;98.50;;;;;;5095909;28;20451;-40
2022/10/25 06:54:01;;;;;;;2.40;1.80;;;14.30;98.30;;;;;;5095306;28;20804;-44
2022/10/25 06:56:27;;;;;;;3.00;1.90;;;14.50;97.80;;;;;;5096117;28;20461;-41
2022/10/25 06:58:53;;;;;;;3.07;2.33;;;14.80;97.70;;;;;;5094352;28;20423;-42
2022/10/25 07:01:20;;;;;;;3.27;2.00;;;15.10;97.50;;;;;;5095139;28;20824;-43
2022/10/25 07:03:46;;;;;;;2.63;1.70;;;15.40;97.20;;;;;;5094631;28;20429;-42
2022/10/25 07:06:14;;;;;;;3.13;2.00;;;15.70;96.80;;;;;;5091508;28;20592;-43
2022/10/25 07:08:41;;;;;;;4.60;2.00;;;16.00;96.20;;;;;;5095661;28;20854;-42
2022/10/25 07:11:11;;;;;;;3.40;2.20;;;16.30;95.70;;;;;;5095609;28;20831;-41
2022/10/25 07:13:37;;;;;;;3.00;2.13;;;16.60;95.20;;;;;;5097198;28;20407;-43
2022/10/25 07:16:09;;;;;;;3.57;2.63;;;16.90;94.80;;;;;;5093749;28;20441;-41
2022/10/25 07:18:35;;;;;;;2.40;1.43;;;17.30;94.50;;;;;;5079727;28;20184;-46
2022/10/25 07:21:05;;;;;;;2.67;1.30;;;17.60;94.00;;;;;;5095466;28;20439;-42
2022/10/25 07:23:31;;;;;;;2.13;1.93;;;17.90;93.70;;;;;;5093400;28;20431;-43
2022/10/25 07:25:57;;;;;;;2.80;1.70;;;18.30;93.20;;;;;;5093596;28;20716;-41
2022/10/25 07:28:23;;;;;;;3.40;1.60;;;18.60;92.70;;;;;;5094309;28;20540;-42
2022/10/25 07:30:49;;;;;;;2.60;1.40;;;18.90;92.30;;;;;;5090174;28;20712;-45
2022/10/25 07:33:16;;;;;;;4.10;1.77;;;19.30;91.90;;;;;;5093680;28;20565;-43
2022/10/25 07:35:47;;;;;;;2.20;1.50;;;19.70;91.30;;;;;;5092436;28;20900;-42
2022/10/25 07:38:13;;;;;;;1.97;1.57;;;20.00;90.90;;;;;;5097185;28;20890;-42
2022/10/25 07:40:39;;;;;;;1.73;1.53;;;20.40;90.50;;;;;;5076019;28;20497;-43
2022/10/25 07:43:05;;;;;;;3.10;1.63;;;20.80;90.00;;;;;;5095774;28;20835;-44
2022/10/25 07:45:30;;;;;;;2.00;1.60;;;21.30;89.30;;;;;;5094107;28;20435;-44
2022/10/25 07:47:56;;;;;;;3.03;1.37;;;21.80;88.30;;;;;;5096166;28;20208;-45
2022/10/25 07:50:22;;;;;;;3.03;1.40;;;22.30;87.40;;;;;;5094615;28;20208;-49
2022/10/25 07:52:47;;;;;;;3.03;2.03;;;22.90;85.90;;;;;;5096113;28;20229;-45
2022/10/25 07:55:13;;;;;;;2.47;1.47;;;23.50;84.60;;;;;;5093791;28;20169;-44
2022/10/25 07:57:38;;;;;;;2.40;1.53;;;24.00;83.30;;;;;;5094624;28;20552;-41
2022/10/25 08:00:08;;;;;;;3.20;1.40;;;24.50;82.00;;;;;;5095198;28;20211;-44
2022/10/25 08:02:34;;;;;;;2.30;1.37;;;25.00;80.40;;;;;;5096231;28;20179;-45
2022/10/25 08:05:00;;;;;;;3.50;1.63;;;25.60;78.40;;;;;;5094316;28;20482;-45
2022/10/25 08:07:26;;;;;;;2.67;1.70;;;26.20;75.90;;;;;;5095203;28;20187;-43
2022/10/25 08:09:52;;;;;;;3.00;1.30;;;26.70;72.90;;;;;;5092566;28;20485;-44
2022/10/25 08:12:18;;;;;;;2.17;1.60;;;27.20;68.50;;;;;;5092832;28;20426;-45
2022/10/25 08:14:43;;;;;;;2.57;1.50;;;27.60;65.50;;;;;;5094281;28;20189;-44
2022/10/25 08:17:09;;;;;;;2.23;1.63;;;28.20;62.90;;;;;;5094573;28;20443;-44
2022/10/25 08:19:35;;;;;;;3.97;1.80;;;28.60;59.60;;;;;;5093155;28;20680;-44
2022/10/25 08:22:01;;;;;;;2.50;1.60;;;29.20;59.10;;;;;;5096013;28;20421;-44
2022/10/25 08:24:27;;;;;;;2.33;1.30;;;29.80;58.10;;;;;;5089191;28;20195;-43
2022/10/25 08:26:53;;;;;;;2.00;1.40;;;30.30;56.00;;;;;;5090873;28;20180;-43
2022/10/25 08:29:18;;;;;;;3.10;1.80;;;30.80;55.70;;;;;;5092488;28;20897;-43
2022/10/25 08:31:44;;;;;;;1.80;1.50;;;31.50;54.80;;;;;;5092549;28;20445;-44
2022/10/25 08:34:11;;;;;;;1.87;1.43;;;32.10;53.60;;;;;;5090571;28;20224;-45
2022/10/25 08:36:38;;;;;;;2.00;1.43;;;32.70;51.60;;;;;;5094148;28;20771;-43
2022/10/25 08:39:04;;;;;;;3.53;1.70;;;33.20;50.10;;;;;;5093645;28;20388;-42
2022/10/25 08:41:52;;;;;;;3.10;1.50;;;33.70;48.30;;;;;;5093688;28;20825;-44
2022/10/25 08:44:30;;;;;;;3.47;1.60;;;34.10;46.90;;;;;;5093168;28;20262;-44
2022/10/25 08:46:57;;;;;;;2.23;1.13;;;34.60;45.60;;;;;;5095322;28;20490;-46
2022/10/25 08:50:00;;;;;;;3.67;1.97;;;35.00;45.00;;;;;;5074750;28;20478;-43
2022/10/25 08:52:29;;;;;;;2.43;1.43;;;35.50;43.60;;;;;;5096021;28;20471;-44
2022/10/25 08:54:57;;;;;;;2.50;1.33;;;36.10;42.50;;;;;;5095481;28;20920;-43
2022/10/25 08:57:26;;;;;;;3.73;1.47;;;36.60;41.90;;;;;;5093664;28;20875;-44
2022/10/25 08:59:57;;;;;;;2.73;1.20;;;37.10;40.70;;;;;;5093418;28;20432;-43
2022/10/25 09:02:35;;;;;;;2.80;1.50;;;37.70;39.80;;;;;;5096435;28;20534;-43
2022/10/25 09:05:00;;;;;;;3.00;1.50;;;38.20;38.70;;;;;;5095288;28;20851;-43
2022/10/25 09:07:29;;;;;;;2.50;1.40;;;38.40;37.80;;;;;;5094288;28;20418;-42
2022/10/25 09:10:22;;;;;;;2.10;1.30;;;39.00;36.90;;;;;;5092652;28;20276;-43
2022/10/25 09:13:14;;;;;;;4.13;1.40;;;39.50;36.50;;;;;;5094412;28;20697;-48
2022/10/25 09:16:01;;;;;;;1.93;1.20;;;40.20;35.50;;;;;;5091950;28;20679;-43
2022/10/25 09:18:41;;;;;;;2.17;1.20;;;40.80;34.30;;;;;;5094666;28;20446;-46
2022/10/25 09:21:13;;;;;;;3.10;1.30;;;41.20;33.70;;;;;;5090380;28;20424;-45
2022/10/25 09:23:40;;;;;;;3.03;1.57;;;41.50;32.70;;;;;;5092663;28;20421;-46
2022/10/25 09:26:14;;;;;;;2.30;1.50;;;41.70;32.20;;;;;;5089458;28;20428;-44
2022/10/25 09:28:49;;;;;;;2.47;1.40;;;41.90;31.60;;;;;;5091536;28;20461;-44
2022/10/25 09:31:19;;;;;;;2.40;1.40;;;41.80;31.20;;;;;;5087924;28;20757;-44
2022/10/25 09:33:46;;;;;;;3.20;1.20;;;41.80;30.80;;;;;;5088272;28;20871;-43
2022/10/25 09:36:13;;;;;;;2.70;1.47;;;41.70;30.60;;;;;;5088505;28;20433;-44
2022/10/25 09:38:54;;;;;;;4.03;1.20;;;41.70;30.80;;;;;;5089174;28;20452;-44
2022/10/25 09:41:34;;;;;;;2.00;1.30;;;41.50;30.50;;;;;;5091773;28;20503;-44
2022/10/25 09:44:13;;;;;;;1.80;1.20;;;41.30;30.50;;;;;;5091397;28;20489;-43
2022/10/25 09:47:12;;;;;;;3.23;1.40;;;40.90;30.70;;;;;;5090265;28;20427;-46
2022/10/25 09:49:45;;;;;;;2.80;1.40;;;40.50;31.50;;;;;;5061621;28;20578;-43
2022/10/25 09:52:37;;;;;;;2.27;1.47;;;40.00;31.70;;;;;;5095936;28;20420;-44
2022/10/25 09:55:19;;;;;;;3.40;1.60;;;39.60;32.20;;;;;;5093686;28;20589;-42
2022/10/25 09:57:45;;;;;;;6.00;1.60;;;39.10;32.20;;;;;;5095332;28;20412;-43
2022/10/25 10:00:20;;;;;;;6.20;1.53;;;38.70;32.70;;;;;;5093394;28;20440;-44
2022/10/25 10:02:46;;;;;;;5.47;1.53;;;38.30;33.10;;;;;;5095137;28;20563;-42
2022/10/25 10:05:19;;;;;;;5.53;1.40;;;37.90;33.00;;;;;;5092031;28;20455;-42
2022/10/25 10:07:46;;;;;;;2.43;1.33;;;37.50;32.90;;;;;;5093907;28;20165;-44
2022/10/25 10:10:20;;;;;;;2.20;1.37;;;37.20;33.30;;;;;;5089389;28;20426;-43
2022/10/25 10:13:06;;;;;;;3.67;1.53;;;37.00;33.50;;;;;;5090298;28;20474;-42
2022/10/25 10:16:03;;;;;;;4.80;1.67;;;36.90;33.90;;;;;;5090922;28;20415;-46
2022/10/25 10:18:31;;;;;;;1.80;1.20;;;37.10;34.00;;;;;;5078620;28;20455;-43
2022/10/25 10:20:59;;;;;;;4.63;1.43;;;37.30;33.80;;;;;;5092295;28;20905;-42
2022/10/25 10:23:32;;;;;;;1.97;0.90;;;37.50;33.30;;;;;;5094177;28;20473;-47
2022/10/25 10:26:02;;;;;;;2.23;1.30;;;37.80;32.80;;;;;;5091919;28;20445;-42
2022/10/25 10:28:28;;;;;;;3.07;1.73;;;38.10;32.80;;;;;;5091215;28;20473;-43
2022/10/25 10:30:56;;;;;;;2.40;1.30;;;38.30;32.50;;;;;;5091191;28;20426;-44
2022/10/25 10:33:22;;;;;;;2.67;1.30;;;39.10;32.50;;;;;;5093897;28;20691;-40
2022/10/25 10:35:47;;;;;;;2.50;1.50;;;39.80;32.00;;;;;;5094143;28;20410;-43
2022/10/25 10:38:26;;;;;;;2.83;1.57;;;40.50;31.30;;;;;;5095501;28;20478;-43
2022/10/25 10:41:12;;;;;;;2.30;1.50;;;41.10;30.60;;;;;;5093182;28;20173;-43
2022/10/25 10:43:38;;;;;;;2.93;1.43;;;41.80;30.30;;;;;;5094519;28;20436;-41
2022/10/25 10:46:09;;;;;;;3.53;1.80;;;42.40;30.00;;;;;;5075891;28;20783;-40
2022/10/25 10:48:37;;;;;;;4.50;1.83;;;43.10;29.80;;;;;;5093829;28;20467;-42
2022/10/25 10:51:03;;;;;;;2.90;1.67;;;43.70;29.10;;;;;;5092414;28;20462;-43
2022/10/25 10:53:31;;;;;;;2.90;1.47;;;44.10;28.80;;;;;;5095290;28;20413;-45
2022/10/25 10:56:05;;;;;;;2.13;1.40;;;44.50;28.40;;;;;;5097561;28;20437;-43
2022/10/25 10:58:34;;;;;;;2.77;1.43;;;44.90;28.50;;;;;;5110950;28;20452;-42
2022/10/25 11:01:01;;;;;;;2.07;1.30;;;45.40;28.30;;;;;;5110880;28;20442;-43
2022/10/25 11:03:39;;;;;;;1.90;1.40;;;45.80;28.10;;;;;;5094181;28;20467;-44
2022/10/25 11:06:26;;;;;;;2.67;1.10;;;46.30;27.90;;;;;;5091369;28;20415;-43
2022/10/25 11:09:14;;;;;;;2.23;1.33;;;46.60;27.50;;;;;;5096398;28;20481;-46
2022/10/25 11:11:40;;;;;;;3.07;1.10;;;46.80;27.30;;;;;;5094087;28;20413;-45
2022/10/25 11:14:14;;;;;;;3.63;1.30;;;47.30;27.10;;;;;;5094132;28;20417;-41
2022/10/25 11:17:25;;;;;;;1.90;1.43;;;47.40;27.00;;;;;;5091515;28;20449;-44
2022/10/25 11:20:15;;;;;;;2.63;1.40;;;47.80;26.70;;;;;;5064308;28;20428;-42
2022/10/25 11:22:53;;;;;;;1.70;1.23;;;47.90;26.40;;;;;;5086960;28;20425;-43
2022/10/25 11:25:45;;;;;;;1.80;1.50;;;48.10;26.50;;;;;;5090829;28;20790;-44
2022/10/25 11:28:25;;;;;;;3.87;1.20;;;48.20;26.40;;;;;;5083466;28;20911;-46
2022/10/25 11:31:09;;;;;;;2.43;1.40;;;48.40;26.20;;;;;;5087674;28;20412;-45
2022/10/25 11:33:46;;;;;;;2.20;1.50;;;48.40;26.00;;;;;;5088630;28;20789;-43
2022/10/25 11:36:36;;;;;;;2.50;1.20;;;48.40;25.90;;;;;;5086020;28;20411;-45
2022/10/25 11:39:23;;;;;;;2.30;1.10;;;48.30;25.70;;;;;;5088507;28;20429;-43
2022/10/25 11:41:59;;;;;;;3.53;1.70;;;48.30;25.80;;;;;;5087611;28;20436;-45
2022/10/25 11:44:55;;;;;;;2.67;1.43;;;48.50;25.70;;;;;;5089396;28;20488;-45
2022/10/25 11:47:36;;;;;;;2.70;1.17;;;48.50;25.80;;;;;;5089057;28;20524;-43
2022/10/25 11:50:09;;;;;;;2.03;1.00;;;48.70;25.80;;;;;;5088928;28;20471;-43
2022/10/25 11:53:11;;;;;;;2.30;1.30;;;48.70;25.70;;;;;;5087427;28;20429;-42
2022/10/25 11:55:56;;;;;;;2.13;1.33;;;48.80;25.60;;;;;;5090774;28;20633;-45
2022/10/25 11:58:43;;;;;;;3.33;1.47;;;48.70;25.40;;;;;;5088233;28;20789;-45
2022/10/25 12:01:29;;;;;;;2.30;1.20;;;47.90;25.70;;;;;;5087604;28;20434;-42
2022/10/25 12:04:22;;;;;;;2.10;1.40;;;48.10;25.50;;;;;;5091118;28;20413;-46
2022/10/25 12:06:55;;;;;;;1.87;1.20;;;47.70;25.60;;;;;;5087771;28;20441;-43
2022/10/25 12:09:44;;;;;;;2.03;1.10;;;45.60;26.30;;;;;;5089651;28;20895;-43
2022/10/25 12:12:16;;;;;;;1.80;1.30;;;44.00;27.00;;;;;;5087071;28;20428;-44
2022/10/25 12:14:45;;;;;;;1.73;1.13;;;43.30;27.40;;;;;;5090244;28;20702;-43
2022/10/25 12:17:37;;;;;;;2.73;1.30;;;41.60;27.70;;;;;;5086513;28;20495;-43
2022/10/25 12:20:05;;;;;;;1.97;1.20;;;40.90;28.10;;;;;;5086182;28;20490;-41
2022/10/25 12:22:38;;;;;;;2.13;1.20;;;40.50;28.70;;;;;;5089744;28;20443;-41
2022/10/25 12:25:24;;;;;;;5.00;1.40;;;40.30;28.80;;;;;;5089628;28;20415;-44
2022/10/25 12:27:59;;;;;;;2.03;1.33;;;39.70;29.10;;;;;;5088327;28;20845;-42
2022/10/25 12:30:26;;;;;;;2.33;1.80;;;38.20;29.80;;;;;;5090690;28;20731;-42
2022/10/25 12:32:57;;;;;;;1.50;0.90;;;37.80;30.30;;;;;;5088221;28;20663;-42
2022/10/25 12:35:30;;;;;;;2.17;1.40;;;37.80;30.30;;;;;;5090097;28;20743;-42
2022/10/25 12:38:20;;;;;;;2.30;1.43;;;38.30;30.20;;;;;;5086682;28;20415;-45
2022/10/25 12:40:48;;;;;;;2.27;1.20;;;39.70;29.70;;;;;;5090730;28;20720;-41
2022/10/25 12:43:35;;;;;;;2.80;1.30;;;41.50;28.80;;;;;;5089447;28;20420;-43
2022/10/25 12:46:17;;;;;;;2.70;1.20;;;42.90;28.10;;;;;;5087587;28;20409;-42
2022/10/25 12:49:04;;;;;;;2.60;0.90;;;44.40;27.40;;;;;;5092286;28;20463;-42
2022/10/25 12:51:49;;;;;;;2.30;1.17;;;45.60;26.80;;;;;;5093501;28;20434;-45
2022/10/25 12:54:34;;;;;;;2.00;1.23;;;46.40;26.10;;;;;;5094815;28;20505;-42
2022/10/25 12:57:20;;;;;;;1.67;1.07;;;46.90;25.90;;;;;;5091057;28;20418;-44
2022/10/25 13:00:11;;;;;;;1.93;1.20;;;47.10;25.70;;;;;;5091229;28;20757;-44
2022/10/25 13:03:14;;;;;;;1.90;1.13;;;47.30;25.50;;;;;;5089883;28;20415;-45
2022/10/25 13:05:58;;;;;;;2.37;1.00;;;47.40;25.70;;;;;;5073068;28;20409;-44
2022/10/25 13:08:25;;;;;;;1.67;1.23;;;47.60;25.60;;;;;;5071703;28;21176;-43
2022/10/25 13:11:00;;;;;;;2.00;1.20;;;47.60;25.50;;;;;;5072849;28;20438;-42